createdAt,value
2018-02-27T00:00:25.183Z,-11.7
2018-02-27T00:01:50.103Z,-11.7
2018-02-27T00:03:09.965Z,-11.7
2018-02-27T00:04:34.912Z,-11.7
2018-02-27T00:05:54.799Z,-11.7
2018-02-27T00:07:14.675Z,-11.8
2018-02-27T00:08:34.528Z,-11.8
2018-02-27T00:09:54.441Z,-11.9
2018-02-27T00:11:14.290Z,-11.9
2018-02-27T00:12:44.297Z,-12
2018-02-27T00:14:06.680Z,-12
2018-02-27T00:15:26.509Z,-12
2018-02-27T00:16:46.368Z,-12.1
2018-02-27T00:18:11.312Z,-12.2
2018-02-27T00:19:33.692Z,-12.2
2018-02-27T00:20:56.101Z,-12.2
2018-02-27T00:22:15.965Z,-12.2
2018-02-27T00:23:38.333Z,-12.2
2018-02-27T00:25:13.452Z,-12.3
2018-02-27T00:26:33.307Z,-12.3
2018-02-27T00:27:55.704Z,-12.3
2018-02-27T00:29:15.588Z,-12.3
2018-02-27T00:30:35.472Z,-12.4
2018-02-27T00:32:00.449Z,-12.4
2018-02-27T00:33:20.372Z,-12.4
2018-02-27T00:34:45.329Z,-12.4
2018-02-27T00:36:10.275Z,-12.4
2018-02-27T00:37:32.642Z,-12.4
2018-02-27T00:38:55.051Z,-12.4
2018-02-27T00:40:20.057Z,-12.3
2018-02-27T00:41:39.969Z,-12.3
2018-02-27T00:42:59.864Z,-12.3
2018-02-27T00:44:19.766Z,-12.4
2018-02-27T00:45:44.675Z,-12.4
2018-02-27T00:47:04.594Z,-12.4
2018-02-27T00:48:27.010Z,-12.4
2018-02-27T00:49:49.374Z,-12.4
2018-02-27T00:51:14.281Z,-12.5
2018-02-27T00:52:39.201Z,-12.4
2018-02-27T00:54:01.571Z,-12.4
2018-02-27T00:55:21.427Z,-12.4
2018-02-27T00:56:41.325Z,-12.4
2018-02-27T00:58:03.706Z,-12.4
2018-02-27T00:59:26.078Z,-12.4
2018-02-27T01:00:53.530Z,-12.5
2018-02-27T01:02:23.586Z,-12.5
2018-02-27T01:03:48.500Z,-12.6
2018-02-27T01:05:08.395Z,-12.6
2018-02-27T01:06:30.786Z,-12.7
2018-02-27T01:07:53.171Z,-12.8
2018-02-27T01:09:18.079Z,-12.9
2018-02-27T01:10:37.962Z,-12.9
2018-02-27T01:11:57.856Z,-12.9
2018-02-27T01:13:17.710Z,-12.9
2018-02-27T01:14:37.588Z,-12.9
2018-02-27T01:15:57.467Z,-12.9
2018-02-27T01:17:24.980Z,-12.9
2018-02-27T01:18:52.426Z,-13
2018-02-27T01:20:12.261Z,-13
2018-02-27T01:21:34.673Z,-13
2018-02-27T01:22:57.087Z,-13.1
2018-02-27T01:24:19.490Z,-13.1
2018-02-27T01:25:41.907Z,-13.1
2018-02-27T01:27:01.742Z,-13.2
2018-02-27T01:28:24.124Z,-13.3
2018-02-27T01:29:46.506Z,-13.2
2018-02-27T01:31:06.368Z,-13.1
2018-02-27T01:32:33.826Z,-13
2018-02-27T01:33:53.680Z,-12.9
2018-02-27T01:35:13.539Z,-12.7
2018-02-27T01:36:35.921Z,-12.7
2018-02-27T01:37:58.324Z,-12.7
2018-02-27T01:39:18.224Z,-12.6
2018-02-27T01:40:40.622Z,-12.7
2018-02-27T01:42:05.614Z,-12.7
2018-02-27T01:43:25.502Z,-12.7
2018-02-27T01:44:47.932Z,-12.7
2018-02-27T01:46:28.028Z,-12.7
2018-02-27T01:47:47.868Z,-12.8
2018-02-27T01:49:12.780Z,-12.8
2018-02-27T01:50:35.242Z,-12.8
2018-02-27T01:51:57.612Z,-12.8
2018-02-27T01:53:30.184Z,-13
2018-02-27T01:54:50.079Z,-13
2018-02-27T01:56:12.455Z,-13
2018-02-27T01:57:32.303Z,-13.1
2018-02-27T01:59:02.266Z,-13.1
2018-02-27T02:00:22.128Z,-13.1
2018-02-27T02:01:47.046Z,-13
2018-02-27T02:03:12.012Z,-13
2018-02-27T02:04:36.943Z,-13
2018-02-27T02:06:01.857Z,-13
2018-02-27T02:07:26.771Z,-13.1
2018-02-27T02:08:46.603Z,-13.1
2018-02-27T02:10:06.438Z,-13.1
2018-02-27T02:11:28.823Z,-13.2
2018-02-27T02:12:51.237Z,-13.2
2018-02-27T02:14:11.125Z,-13.2
2018-02-27T02:15:33.523Z,-13.3
2018-02-27T02:16:53.405Z,-13.3
2018-02-27T02:18:15.780Z,-13.4
2018-02-27T02:19:38.202Z,-13.4
2018-02-27T02:20:58.055Z,-13.4
2018-02-27T02:22:17.891Z,-13.5
2018-02-27T02:23:37.746Z,-13.6
2018-02-27T02:25:05.228Z,-13.7
2018-02-27T02:26:27.644Z,-13.7
2018-02-27T02:27:50.096Z,-13.8
2018-02-27T02:29:09.992Z,-13.7
2018-02-27T02:30:34.973Z,-13.6
2018-02-27T02:31:57.333Z,-13.6
2018-02-27T02:33:17.232Z,-13.5
2018-02-27T02:34:39.625Z,-13.5
2018-02-27T02:35:59.485Z,-13.4
2018-02-27T02:37:19.379Z,-13.4
2018-02-27T02:38:39.232Z,-13.4
2018-02-27T02:39:59.067Z,-13.4
2018-02-27T02:41:18.916Z,-13.4
2018-02-27T02:42:38.768Z,-13.3
2018-02-27T02:43:58.619Z,-13.4
2018-02-27T02:45:23.517Z,-13.4
2018-02-27T02:46:43.393Z,-13.4
2018-02-27T02:48:05.800Z,-13.4
2018-02-27T02:49:25.723Z,-13.5
2018-02-27T02:50:45.599Z,-13.4
2018-02-27T02:52:05.484Z,-13.4
2018-02-27T02:53:25.388Z,-13.5
2018-02-27T02:54:52.838Z,-13.6
2018-02-27T02:56:12.668Z,-13.6
2018-02-27T02:57:35.094Z,-13.7
2018-02-27T02:58:57.456Z,-13.8
2018-02-27T03:00:17.305Z,-13.7
2018-02-27T03:01:37.156Z,-13.7
2018-02-27T03:03:02.067Z,-13.8
2018-02-27T03:04:21.916Z,-13.8
2018-02-27T03:05:41.764Z,-13.8
2018-02-27T03:07:01.646Z,-13.8
2018-02-27T03:08:21.483Z,-13.9
2018-02-27T03:09:41.363Z,-14
2018-02-27T03:11:03.734Z,-14.1
2018-02-27T03:12:26.097Z,-14.1
2018-02-27T03:13:45.944Z,-13.9
2018-02-27T03:15:05.837Z,-14
2018-02-27T03:16:33.330Z,-14.1
2018-02-27T03:17:53.183Z,-14.1
2018-02-27T03:19:13.026Z,-14.2
2018-02-27T03:20:32.858Z,-14.2
2018-02-27T03:21:55.275Z,-14.2
2018-02-27T03:23:17.655Z,-14.2
2018-02-27T03:24:45.108Z,-14.3
2018-02-27T03:26:05.010Z,-14.3
2018-02-27T03:27:27.404Z,-14.3
2018-02-27T03:28:49.808Z,-14.2
2018-02-27T03:30:12.196Z,-14.3
2018-02-27T03:31:34.573Z,-14.3
2018-02-27T03:32:54.496Z,-14.3
2018-02-27T03:34:19.427Z,-14.3
2018-02-27T03:35:44.342Z,-14.2
2018-02-27T03:37:09.266Z,-14.2
2018-02-27T03:38:29.150Z,-14.2
2018-02-27T03:39:51.553Z,-14.4
2018-02-27T03:41:11.456Z,-14.4
2018-02-27T03:42:31.348Z,-14.4
2018-02-27T03:43:51.252Z,-14.4
2018-02-27T03:45:11.092Z,-14.4
2018-02-27T03:46:33.477Z,-14.4
2018-02-27T03:47:55.886Z,-14.4
2018-02-27T03:49:15.747Z,-14.5
2018-02-27T03:50:38.115Z,-14.3
2018-02-27T03:51:57.997Z,-14.2
2018-02-27T03:53:17.849Z,-14.2
2018-02-27T03:54:37.722Z,-14.2
2018-02-27T03:55:57.570Z,-14.2
2018-02-27T03:57:17.422Z,-14.1
2018-02-27T03:58:37.277Z,-14.1
2018-02-27T03:59:57.160Z,-14
2018-02-27T04:01:17.038Z,-14
2018-02-27T04:02:36.882Z,-14
2018-02-27T04:04:01.800Z,-13.9
2018-02-27T04:05:21.645Z,-13.8
2018-02-27T04:06:41.512Z,-13.7
2018-02-27T04:08:08.988Z,-13.7
2018-02-27T04:09:28.860Z,-13.6
2018-02-27T04:10:48.706Z,-13.6
2018-02-27T04:12:11.081Z,-13.6
2018-02-27T04:13:30.917Z,-13.6
2018-02-27T04:14:50.769Z,-13.6
2018-02-27T04:16:10.668Z,-13.5
2018-02-27T04:17:33.040Z,-13.5
2018-02-27T04:19:05.564Z,-13.4
2018-02-27T04:20:30.522Z,-13.4
2018-02-27T04:21:52.950Z,-13.5
2018-02-27T04:23:12.833Z,-13.5
2018-02-27T04:24:42.827Z,-13.5
2018-02-27T04:26:02.690Z,-13.5
2018-02-27T04:27:22.557Z,-13.5
2018-02-27T04:28:42.403Z,-13.6
2018-02-27T04:30:02.271Z,-13.6
2018-02-27T04:31:29.736Z,-13.6
2018-02-27T04:32:49.592Z,-13.6
2018-02-27T04:34:09.496Z,-13.6
2018-02-27T04:35:29.392Z,-13.6
2018-02-27T04:36:49.289Z,-13.5
2018-02-27T04:38:09.163Z,-13.5
2018-02-27T04:39:29.013Z,-13.5
2018-02-27T04:40:48.844Z,-13.4
2018-02-27T04:42:11.253Z,-13.4
2018-02-27T04:43:36.150Z,-13.4
2018-02-27T04:44:58.528Z,-13.4
2018-02-27T04:46:20.922Z,-13.5
2018-02-27T04:47:45.850Z,-13.5
2018-02-27T04:49:10.777Z,-13.5
2018-02-27T04:50:30.662Z,-13.6
2018-02-27T04:51:50.538Z,-13.6
2018-02-27T04:53:10.417Z,-13.6
2018-02-27T04:54:32.834Z,-13.6
2018-02-27T04:55:55.245Z,-13.7
2018-02-27T04:57:15.122Z,-13.7
2018-02-27T04:58:35.012Z,-13.8
2018-02-27T04:59:54.907Z,-13.8
2018-02-27T05:01:14.794Z,-13.8
2018-02-27T05:02:37.159Z,-13.8
2018-02-27T05:03:57.013Z,-13.8
2018-02-27T05:05:27.000Z,-13.9
2018-02-27T05:06:46.890Z,-13.9
2018-02-27T05:08:06.747Z,-13.9
2018-02-27T05:09:26.643Z,-14
2018-02-27T05:10:51.549Z,-14
2018-02-27T05:12:11.383Z,-14.1
2018-02-27T05:13:31.255Z,-14.1
2018-02-27T05:14:53.641Z,-14.1
2018-02-27T05:16:13.514Z,-14.1
2018-02-27T05:17:33.385Z,-14.1
2018-02-27T05:18:58.264Z,-14.2
2018-02-27T05:20:20.685Z,-14.2
2018-02-27T05:21:48.169Z,-14.2
2018-02-27T05:23:08.090Z,-14.2
2018-02-27T05:24:30.535Z,-14.2
2018-02-27T05:25:50.418Z,-14.2
2018-02-27T05:27:10.279Z,-14.2
2018-02-27T05:28:30.146Z,-14.2
2018-02-27T05:29:52.585Z,-14.2
2018-02-27T05:31:12.442Z,-14.3
2018-02-27T05:32:32.314Z,-14.3
2018-02-27T05:33:52.217Z,-14.4
2018-02-27T05:35:14.645Z,-14.4
2018-02-27T05:36:47.179Z,-14.4
2018-02-27T05:38:09.585Z,-14.4
2018-02-27T05:39:34.572Z,-14.4
2018-02-27T05:40:57.031Z,-14.6
2018-02-27T05:42:16.863Z,-14.7
2018-02-27T05:43:36.747Z,-14.7
2018-02-27T05:44:56.605Z,-14.7
2018-02-27T05:46:16.458Z,-14.7
2018-02-27T05:47:36.315Z,-14.7
2018-02-27T05:49:23.982Z,-14.7
2018-02-27T05:50:46.358Z,-14.6
2018-02-27T05:52:08.755Z,-14.7
2018-02-27T05:53:28.592Z,-14.7
2018-02-27T05:54:53.511Z,-14.7
2018-02-27T05:56:13.382Z,-14.7
2018-02-27T05:57:33.226Z,-14.8
2018-02-27T05:58:53.087Z,-14.7
2018-02-27T06:00:12.938Z,-14.6
2018-02-27T06:01:32.823Z,-14.7
2018-02-27T06:03:00.275Z,-14.7
2018-02-27T06:04:22.650Z,-14.7
2018-02-27T06:05:42.518Z,-14.7
2018-02-27T06:07:02.378Z,-14.8
2018-02-27T06:08:22.216Z,-14.8
2018-02-27T06:09:42.049Z,-14.8
2018-02-27T06:11:01.912Z,-14.8
2018-02-27T06:12:29.410Z,-14.9
2018-02-27T06:13:54.404Z,-15
2018-02-27T06:15:14.243Z,-15
2018-02-27T06:16:41.737Z,-14.9
2018-02-27T06:18:01.593Z,-14.9
2018-02-27T06:19:26.540Z,-14.9
2018-02-27T06:20:48.920Z,-14.8
2018-02-27T06:22:18.922Z,-14.8
2018-02-27T06:23:38.792Z,-14.8
2018-02-27T06:25:08.592Z,-14.8
2018-02-27T06:26:31.003Z,-14.8
2018-02-27T06:27:50.841Z,-14.8
2018-02-27T06:29:10.718Z,-14.8
2018-02-27T06:30:30.584Z,-14.7
2018-02-27T06:31:50.484Z,-14.7
2018-02-27T06:33:10.402Z,-14.7
2018-02-27T06:34:32.768Z,-14.7
2018-02-27T06:35:55.210Z,-14.7
2018-02-27T06:37:27.714Z,-14.7
2018-02-27T06:38:47.576Z,-14.5
2018-02-27T06:40:10.045Z,-14.6
2018-02-27T06:41:29.926Z,-14.6
2018-02-27T06:42:54.863Z,-14.6
2018-02-27T06:44:17.254Z,-14.7
2018-02-27T06:45:37.144Z,-14.7
2018-02-27T06:46:57.041Z,-14.7
2018-02-27T06:48:19.424Z,-14.7
2018-02-27T06:49:39.262Z,-14.8
2018-02-27T06:50:59.115Z,-14.8
2018-02-27T06:52:19.018Z,-14.8
2018-02-27T06:53:43.924Z,-14.8
2018-02-27T06:55:06.335Z,-14.8
2018-02-27T06:56:41.401Z,-14.6
2018-02-27T06:58:08.907Z,-14.3
2018-02-27T06:59:28.762Z,-14.2
2018-02-27T07:00:48.652Z,-14.1
2018-02-27T07:02:16.103Z,-14.1
2018-02-27T07:03:43.594Z,-14
2018-02-27T07:05:03.483Z,-13.9
2018-02-27T07:06:28.444Z,-13.7
2018-02-27T07:07:53.351Z,-13.7
2018-02-27T07:09:15.753Z,-13.7
2018-02-27T07:10:35.644Z,-13.6
2018-02-27T07:11:58.060Z,-13.6
2018-02-27T07:13:17.916Z,-13.4
2018-02-27T07:14:40.374Z,-13.4
2018-02-27T07:16:00.268Z,-13.3
2018-02-27T07:17:22.665Z,-13.3
2018-02-27T07:18:42.510Z,-13.2
2018-02-27T07:20:04.973Z,-13.2
2018-02-27T07:21:24.901Z,-13
2018-02-27T07:22:49.888Z,-13
2018-02-27T07:24:17.328Z,-12.9
2018-02-27T07:25:42.261Z,-12.9
2018-02-27T07:27:02.091Z,-12.8
2018-02-27T07:28:29.538Z,-12.8
2018-02-27T07:29:54.512Z,-12.8
2018-02-27T07:31:22.024Z,-12.7
2018-02-27T07:32:44.381Z,-12.7
2018-02-27T07:34:06.827Z,-12.6
2018-02-27T07:35:26.692Z,-12.6
2018-02-27T07:36:49.106Z,-12.5
2018-02-27T07:38:08.961Z,-12.5
2018-02-27T07:39:28.800Z,-12.4
2018-02-27T07:40:53.748Z,-12.4
2018-02-27T07:42:13.579Z,-12.3
2018-02-27T07:43:46.147Z,-12.2
2018-02-27T07:45:11.098Z,-12
2018-02-27T07:46:30.945Z,-12
2018-02-27T07:47:50.780Z,-12
2018-02-27T07:49:23.348Z,-12
2018-02-27T07:50:53.321Z,-12
2018-02-27T07:52:15.720Z,-12
2018-02-27T07:53:35.652Z,-12
2018-02-27T07:54:58.038Z,-11.9
2018-02-27T07:56:20.458Z,-11.9
2018-02-27T07:57:42.912Z,-11.9
2018-02-27T07:59:02.768Z,-12
2018-02-27T08:00:22.601Z,-12
2018-02-27T08:01:42.438Z,-12
2018-02-27T08:03:09.899Z,-12
2018-02-27T08:04:29.767Z,-12
2018-02-27T08:05:52.149Z,-11.9
2018-02-27T08:07:12.029Z,-11.9
2018-02-27T08:08:34.394Z,-11.8
2018-02-27T08:09:54.264Z,-11.6
2018-02-27T08:11:19.179Z,-11.5
2018-02-27T08:12:39.033Z,-11.5
2018-02-27T08:13:58.885Z,-11.4
2018-02-27T08:15:23.813Z,-11.4
2018-02-27T08:16:43.717Z,-11.2
2018-02-27T08:18:03.582Z,-11.2
2018-02-27T08:19:28.481Z,-11.2
2018-02-27T08:20:48.384Z,-11.1
2018-02-27T08:22:08.222Z,-11.1
2018-02-27T08:23:28.093Z,-11.1
2018-02-27T08:24:47.982Z,-11.2
2018-02-27T08:26:07.868Z,-11.2
2018-02-27T08:27:27.756Z,-11.1
2018-02-27T08:28:52.653Z,-11
2018-02-27T08:30:15.065Z,-11.1
2018-02-27T08:31:37.449Z,-11
2018-02-27T08:32:59.907Z,-11
2018-02-27T08:34:22.284Z,-11
2018-02-27T08:35:42.135Z,-11
2018-02-27T08:37:04.581Z,-10.8
2018-02-27T08:38:27.025Z,-10.8
2018-02-27T08:39:57.010Z,-10.7
2018-02-27T08:41:19.413Z,-10.6
2018-02-27T08:42:39.304Z,-10.7
2018-02-27T08:43:59.183Z,-10.7
2018-02-27T08:45:24.096Z,-10.7
2018-02-27T08:46:43.934Z,-10.6
2018-02-27T08:48:03.785Z,-10.6
2018-02-27T08:49:26.170Z,-10.6
2018-02-27T08:50:48.554Z,-10.6
2018-02-27T08:52:10.960Z,-10.5
2018-02-27T08:53:33.372Z,-10.5
2018-02-27T08:54:53.217Z,-10.5
2018-02-27T08:56:20.702Z,-10.5
2018-02-27T08:57:43.106Z,-10.5
2018-02-27T08:59:05.526Z,-10.4
2018-02-27T09:00:27.960Z,-10.4
2018-02-27T09:01:47.854Z,-10.3
2018-02-27T09:03:10.297Z,-10.3
2018-02-27T09:04:30.168Z,-10.2
2018-02-27T09:05:57.665Z,-10.1
2018-02-27T09:07:20.070Z,-10.1
2018-02-27T09:08:45.017Z,-10.1
2018-02-27T09:10:07.417Z,-10
2018-02-27T09:11:27.282Z,-10.1
2018-02-27T09:12:47.112Z,-10
2018-02-27T09:14:06.956Z,-10.1
2018-02-27T09:15:26.804Z,-10.1
2018-02-27T09:16:46.674Z,-10.2
2018-02-27T09:18:06.530Z,-10.3
2018-02-27T09:19:26.380Z,-10.3
2018-02-27T09:20:46.226Z,-10.2
2018-02-27T09:22:08.620Z,-10.1
2018-02-27T09:23:36.078Z,-10
2018-02-27T09:25:01.025Z,-9.9
2018-02-27T09:26:20.862Z,-10
2018-02-27T09:27:50.826Z,-9.9
2018-02-27T09:29:10.669Z,-9.8
2018-02-27T09:30:38.087Z,-9.8
2018-02-27T09:31:57.933Z,-9.8
2018-02-27T09:33:25.438Z,-9.8
2018-02-27T09:34:45.291Z,-9.8
2018-02-27T09:36:10.261Z,-9.6
2018-02-27T09:37:40.286Z,-9.5
2018-02-27T09:39:00.142Z,-9.5
2018-02-27T09:40:22.512Z,-9.4
2018-02-27T09:41:49.995Z,-9.3
2018-02-27T09:43:09.851Z,-9.3
2018-02-27T09:44:29.721Z,-9.3
2018-02-27T09:45:49.549Z,-9.2
2018-02-27T09:47:09.484Z,-9.2
2018-02-27T09:48:34.404Z,-9
2018-02-27T09:49:54.288Z,-9
2018-02-27T09:51:26.787Z,-9
2018-02-27T09:52:46.613Z,-9.1
2018-02-27T09:54:06.451Z,-9.1
2018-02-27T09:55:26.322Z,-9.1
2018-02-27T09:56:46.138Z,-9
2018-02-27T09:58:13.546Z,-8.8
2018-02-27T09:59:35.906Z,-8.8
2018-02-27T10:01:00.832Z,-8.8
2018-02-27T10:02:20.679Z,-8.7
2018-02-27T10:03:40.591Z,-8.8
2018-02-27T10:05:00.486Z,-8.7
2018-02-27T10:06:20.404Z,-8.5
2018-02-27T10:07:40.258Z,-8.5
2018-02-27T10:09:00.118Z,-8.4
2018-02-27T10:10:35.149Z,-8.2
2018-02-27T10:12:00.143Z,-8.3
2018-02-27T10:13:25.080Z,-8.4
2018-02-27T10:14:52.497Z,-8.4
2018-02-27T10:16:12.365Z,-8.3
2018-02-27T10:17:34.780Z,-8.2
2018-02-27T10:18:54.610Z,-8.2
2018-02-27T10:20:17.020Z,-8.1
2018-02-27T10:21:44.432Z,-8
2018-02-27T10:23:04.319Z,-8
2018-02-27T10:24:24.135Z,-8
2018-02-27T10:25:51.570Z,-8
2018-02-27T10:27:11.404Z,-8.1
2018-02-27T10:28:31.240Z,-7.9
2018-02-27T10:29:56.128Z,-7.8
2018-02-27T10:31:18.489Z,-7.8
2018-02-27T10:32:38.384Z,-7.9
2018-02-27T10:33:58.261Z,-7.9
2018-02-27T10:35:18.083Z,-7.8
2018-02-27T10:36:50.612Z,-7.8
2018-02-27T10:38:10.474Z,-7.8
2018-02-27T10:39:30.394Z,-7.8
2018-02-27T10:40:52.771Z,-7.9
2018-02-27T10:42:15.163Z,-7.8
2018-02-27T10:43:40.095Z,-7.7
2018-02-27T10:44:59.949Z,-7.7
2018-02-27T10:46:19.847Z,-7.8
2018-02-27T10:47:44.794Z,-7.8
2018-02-27T10:49:04.662Z,-7.9
2018-02-27T10:50:34.659Z,-7.9
2018-02-27T10:51:54.520Z,-7.9
2018-02-27T10:53:19.467Z,-7.6
2018-02-27T10:54:39.362Z,-7.7
2018-02-27T10:55:59.193Z,-7.8
2018-02-27T10:57:26.631Z,-7.8
2018-02-27T10:58:46.444Z,-7.9
2018-02-27T11:00:06.293Z,-7.9
2018-02-27T11:01:26.153Z,-7.9
2018-02-27T11:02:45.989Z,-7.7
2018-02-27T11:04:15.953Z,-7.6
2018-02-27T11:05:35.795Z,-7.4
2018-02-27T11:07:00.710Z,-7.4
2018-02-27T11:08:20.573Z,-7.2
2018-02-27T11:09:45.516Z,-7.1
2018-02-27T11:11:12.987Z,-7.1
2018-02-27T11:12:35.398Z,-7.1
2018-02-27T11:13:55.254Z,-7
2018-02-27T11:15:15.118Z,-6.9
2018-02-27T11:16:35.034Z,-6.8
2018-02-27T11:17:59.984Z,-6.8
2018-02-27T11:19:19.864Z,-6.8
2018-02-27T11:20:39.709Z,-6.9
2018-02-27T11:21:59.552Z,-6.9
2018-02-27T11:23:27.016Z,-6.7
2018-02-27T11:24:49.368Z,-6.5
2018-02-27T11:26:09.205Z,-6.5
2018-02-27T11:27:46.765Z,-6.8
2018-02-27T11:29:09.164Z,-6.8
2018-02-27T11:30:29.002Z,-6.8
2018-02-27T11:31:51.388Z,-6.7
2018-02-27T11:33:11.228Z,-6.7
2018-02-27T11:34:31.070Z,-6.9
2018-02-27T11:35:50.898Z,-6.9
2018-02-27T11:37:13.243Z,-6.7
2018-02-27T11:38:33.078Z,-6.5
2018-02-27T11:39:52.909Z,-6.3
2018-02-27T11:41:12.770Z,-6.3
2018-02-27T11:42:35.179Z,-6.3
2018-02-27T11:43:55.029Z,-6.1
2018-02-27T11:45:20.005Z,-6.1
2018-02-27T11:46:39.869Z,-6.3
2018-02-27T11:47:59.734Z,-6.1
2018-02-27T11:49:19.576Z,-6.1
2018-02-27T11:50:39.470Z,-6.3
2018-02-27T11:52:01.890Z,-6.3
2018-02-27T11:53:31.853Z,-5.8
2018-02-27T11:54:51.671Z,-5.7
2018-02-27T11:56:11.544Z,-5.7
2018-02-27T11:57:33.986Z,-5.6
2018-02-27T11:58:56.353Z,-5.5
2018-02-27T12:00:16.183Z,-5.6
2018-02-27T12:01:46.142Z,-5.7
2018-02-27T12:03:11.085Z,-5.6
2018-02-27T12:04:38.526Z,-5.7
2018-02-27T12:06:03.466Z,-5.5
2018-02-27T12:07:23.338Z,-5.4
2018-02-27T12:08:43.152Z,-5.2
2018-02-27T12:10:10.599Z,-5.1
2018-02-27T12:11:35.521Z,-5.1
2018-02-27T12:13:02.996Z,-5.2
2018-02-27T12:14:22.816Z,-5.2
2018-02-27T12:15:47.708Z,-5.2
2018-02-27T12:17:10.098Z,-5.2
2018-02-27T12:18:32.528Z,-5.1
2018-02-27T12:20:02.532Z,-5.1
2018-02-27T12:21:22.348Z,-5.2
2018-02-27T12:22:42.227Z,-5.1
2018-02-27T12:24:04.593Z,-5.1
2018-02-27T12:25:27.015Z,-5.2
2018-02-27T12:26:46.861Z,-5.2
2018-02-27T12:28:06.681Z,-5.2
2018-02-27T12:29:34.118Z,-5
2018-02-27T12:31:04.104Z,-4.8
2018-02-27T12:32:26.472Z,-4.4
2018-02-27T12:33:46.382Z,-4.2
2018-02-27T12:35:11.282Z,-4.1
2018-02-27T12:36:31.135Z,-4.3
2018-02-27T12:37:56.026Z,-4.4
2018-02-27T12:39:20.912Z,-4.3
2018-02-27T12:40:45.829Z,-4.3
2018-02-27T12:42:05.684Z,-3.8
2018-02-27T12:43:35.700Z,-3.6
2018-02-27T12:44:55.565Z,-3
2018-02-27T12:46:22.996Z,-2.8
2018-02-27T12:47:42.839Z,1.3
2018-02-27T12:49:02.661Z,1.6
2018-02-27T12:50:27.541Z,4.1
2018-02-27T12:51:52.441Z,6.2
2018-02-27T12:53:12.266Z,7.4
2018-02-27T12:54:37.157Z,8.7
2018-02-27T12:55:56.988Z,9.5
2018-02-27T12:57:21.930Z,10.1
2018-02-27T12:58:41.730Z,8.1
2018-02-27T13:00:01.531Z,4.3
2018-02-27T13:01:26.440Z,5.5
2018-02-27T13:02:46.303Z,7.5
2018-02-27T13:04:11.180Z,8.8
2018-02-27T13:05:33.579Z,10
2018-02-27T13:06:58.477Z,11.6
2018-02-27T13:08:18.357Z,12.1
2018-02-27T13:09:43.265Z,12.1
2018-02-27T13:11:05.681Z,11.3
2018-02-27T13:12:25.558Z,12.3
2018-02-27T13:13:45.432Z,12.7
2018-02-27T13:15:07.843Z,13
2018-02-27T13:16:30.248Z,12.1
2018-02-27T13:17:50.156Z,12
2018-02-27T13:19:12.523Z,12.7
2018-02-27T13:20:34.926Z,12.9
2018-02-27T13:21:57.296Z,13.6
2018-02-27T13:23:17.131Z,14.8
2018-02-27T13:24:42.059Z,14.7
2018-02-27T13:26:09.514Z,14.8
2018-02-27T13:27:29.418Z,15
2018-02-27T13:28:49.316Z,13.5
2018-02-27T13:30:11.671Z,13.9
2018-02-27T13:31:34.033Z,15.2
2018-02-27T13:32:53.865Z,14.3
2018-02-27T13:34:31.447Z,14.5
2018-02-27T13:35:53.843Z,14.9
2018-02-27T13:37:18.730Z,13.8
2018-02-27T13:38:38.569Z,13.6
2018-02-27T13:40:00.982Z,12.4
2018-02-27T13:41:20.845Z,12.1
2018-02-27T13:42:40.693Z,11.6
2018-02-27T13:44:00.542Z,12.8
2018-02-27T13:45:25.513Z,12.8
2018-02-27T13:46:47.909Z,8.9
2018-02-27T13:48:10.329Z,10.6
2018-02-27T13:49:30.209Z,11.4
2018-02-27T13:50:52.560Z,9.4
2018-02-27T13:52:12.505Z,10.9
2018-02-27T13:53:45.080Z,11.3
2018-02-27T13:55:04.957Z,12.4
2018-02-27T13:56:29.871Z,13.1
2018-02-27T13:57:49.719Z,13.2
2018-02-27T13:59:09.555Z,12.9
2018-02-27T14:00:31.952Z,12.5
2018-02-27T14:01:56.835Z,12.3
2018-02-27T14:03:16.711Z,13.4
2018-02-27T14:04:36.556Z,13.6
2018-02-27T14:05:56.430Z,13.1
2018-02-27T14:07:33.971Z,10.1
2018-02-27T14:08:56.343Z,4.3
2018-02-27T14:10:23.834Z,3.9
2018-02-27T14:11:53.769Z,6.2
2018-02-27T14:13:21.206Z,4.2
2018-02-27T14:14:41.017Z,2.1
2018-02-27T14:16:00.833Z,0.6
2018-02-27T14:17:20.699Z,-0.5
2018-02-27T14:18:40.569Z,-1.5
2018-02-27T14:20:00.474Z,-1.9
2018-02-27T14:21:30.536Z,-2.2
2018-02-27T14:22:50.459Z,-2.5
2018-02-27T14:24:10.364Z,-2.7
2018-02-27T14:25:30.216Z,-3
2018-02-27T14:26:50.086Z,-3.3
2018-02-27T14:28:09.953Z,-3.4
2018-02-27T14:29:32.311Z,-3.4
2018-02-27T14:30:52.133Z,-3.4
2018-02-27T14:32:11.952Z,-3.4
2018-02-27T14:33:41.911Z,-3.6
2018-02-27T14:35:01.755Z,-3.7
2018-02-27T14:36:21.584Z,-3.6
2018-02-27T14:37:41.438Z,-3.5
2018-02-27T14:39:08.860Z,-3.5
2018-02-27T14:40:28.694Z,-3.8
2018-02-27T14:41:51.039Z,-3.9
2018-02-27T14:43:15.941Z,-3.9
2018-02-27T14:44:43.403Z,-3.8
2018-02-27T14:46:05.766Z,-3.9
2018-02-27T14:47:25.648Z,-4
2018-02-27T14:48:48.009Z,-4.2
2018-02-27T14:50:07.832Z,-4.4
2018-02-27T14:51:27.653Z,-4.3
2018-02-27T14:52:47.506Z,-4.4
2018-02-27T14:54:07.428Z,-4.4
2018-02-27T14:55:27.251Z,-4.3
2018-02-27T14:56:47.070Z,-4.3
2018-02-27T14:58:09.437Z,-4.4
2018-02-27T14:59:36.866Z,-4.5
2018-02-27T15:00:59.211Z,-4.5
2018-02-27T15:02:19.100Z,-4.3
2018-02-27T15:03:46.574Z,-4.1
2018-02-27T15:05:06.401Z,-4.1
2018-02-27T15:06:28.771Z,-4.3
2018-02-27T15:07:51.135Z,-4.5
2018-02-27T15:09:10.970Z,-4.6
2018-02-27T15:10:30.792Z,-4.7
2018-02-27T15:11:55.722Z,-4.9
2018-02-27T15:13:15.571Z,-5.1
2018-02-27T15:14:37.950Z,-5.2
2018-02-27T15:15:57.764Z,-5.2
2018-02-27T15:17:17.624Z,-5.2
2018-02-27T15:18:37.451Z,-5.1
2018-02-27T15:19:57.339Z,-5.1
2018-02-27T15:21:17.169Z,-5
2018-02-27T15:22:42.063Z,-5.1
2018-02-27T15:24:01.930Z,-5.1
2018-02-27T15:25:29.370Z,-5
2018-02-27T15:26:51.788Z,-4.9
2018-02-27T15:28:16.685Z,-4.8
2018-02-27T15:29:36.500Z,-4.8
2018-02-27T15:30:56.339Z,-4.8
2018-02-27T15:32:26.338Z,-5
2018-02-27T15:33:46.196Z,-5.1
2018-02-27T15:35:06.044Z,-5.2
2018-02-27T15:36:25.862Z,-5.3
2018-02-27T15:37:45.715Z,-5.3
2018-02-27T15:39:15.681Z,-5.4
2018-02-27T15:40:38.071Z,-5.5
2018-02-27T15:42:02.974Z,-5.6
2018-02-27T15:43:27.852Z,-5.5
2018-02-27T15:44:47.696Z,-5.7
2018-02-27T15:46:07.543Z,-5.7
2018-02-27T15:47:40.079Z,-5.7
2018-02-27T15:49:07.501Z,-5.7
2018-02-27T15:50:45.096Z,-5.8
2018-02-27T15:52:04.954Z,-5.8
2018-02-27T15:53:24.802Z,-5.9
2018-02-27T15:54:52.235Z,-5.9
2018-02-27T15:56:12.133Z,-5.9
2018-02-27T15:57:31.979Z,-6
2018-02-27T15:58:51.805Z,-6.1
2018-02-27T16:00:19.215Z,-6.1
2018-02-27T16:01:39.063Z,-6.2
2018-02-27T16:02:58.940Z,-6.3
2018-02-27T16:04:18.784Z,-6.3
2018-02-27T16:05:51.258Z,-6.3
2018-02-27T16:07:16.189Z,-6.3
2018-02-27T16:08:41.087Z,-6.3
2018-02-27T16:10:00.970Z,-6.3
2018-02-27T16:11:23.374Z,-6.4
2018-02-27T16:12:43.197Z,-6.4
2018-02-27T16:14:05.602Z,-6.4
2018-02-27T16:15:30.512Z,-6.5
2018-02-27T16:16:50.381Z,-6.5
2018-02-27T16:18:10.234Z,-6.6
2018-02-27T16:19:32.633Z,-6.7
2018-02-27T16:20:52.472Z,-6.7
2018-02-27T16:22:19.973Z,-6.7
2018-02-27T16:23:44.931Z,-6.8
2018-02-27T16:25:07.335Z,-6.9
2018-02-27T16:26:44.921Z,-7
2018-02-27T16:28:04.931Z,-7
2018-02-27T16:29:24.794Z,-7
2018-02-27T16:30:44.644Z,-7
2018-02-27T16:32:14.610Z,-7.1
2018-02-27T16:33:42.077Z,-7.1
2018-02-27T16:35:01.902Z,-7.2
2018-02-27T16:36:21.735Z,-7.2
2018-02-27T16:37:51.721Z,-7.3
2018-02-27T16:39:11.600Z,-7.4
2018-02-27T16:40:39.042Z,-7.4
2018-02-27T16:41:58.904Z,-7.4
2018-02-27T16:43:18.757Z,-7.5
2018-02-27T16:44:38.602Z,-7.5
2018-02-27T16:45:58.442Z,-7.5
2018-02-27T16:47:30.959Z,-7.6
2018-02-27T16:48:50.812Z,-7.7
2018-02-27T16:50:20.764Z,-7.7
2018-02-27T16:51:45.676Z,-7.8
2018-02-27T16:53:08.040Z,-7.9
2018-02-27T16:54:27.936Z,-7.9
2018-02-27T16:55:55.444Z,-7.9
2018-02-27T16:57:15.298Z,-7.9
2018-02-27T16:58:37.647Z,-8
2018-02-27T16:59:57.526Z,-8.1
2018-02-27T17:01:17.380Z,-8.2
2018-02-27T17:02:37.260Z,-8.2
2018-02-27T17:03:57.131Z,-8.2
2018-02-27T17:05:19.540Z,-8.1
2018-02-27T17:06:39.426Z,-8.2
2018-02-27T17:08:01.776Z,-8.2
2018-02-27T17:09:24.123Z,-8.2
2018-02-27T17:10:43.978Z,-8.2
2018-02-27T17:12:06.344Z,-8.2
2018-02-27T17:13:26.222Z,-8.2
2018-02-27T17:14:46.102Z,-8.3
2018-02-27T17:16:05.968Z,-8.4
2018-02-27T17:17:30.875Z,-8.4
2018-02-27T17:18:50.734Z,-8.4
2018-02-27T17:20:10.631Z,-8.5
2018-02-27T17:21:40.614Z,-8.5
2018-02-27T17:23:08.034Z,-8.5
2018-02-27T17:24:27.866Z,-8.5
2018-02-27T17:25:52.764Z,-8.6
2018-02-27T17:27:17.642Z,-8.7
2018-02-27T17:28:45.095Z,-8.7
2018-02-27T17:30:20.137Z,-8.7
2018-02-27T17:31:40.006Z,-8.7
2018-02-27T17:33:10.042Z,-8.8
2018-02-27T17:34:34.965Z,-8.8
2018-02-27T17:35:59.880Z,-8.8
2018-02-27T17:37:22.251Z,-8.9
2018-02-27T17:38:42.092Z,-8.9
2018-02-27T17:40:12.046Z,-9
2018-02-27T17:41:34.427Z,-9.1
2018-02-27T17:42:56.789Z,-9.1
2018-02-27T17:44:16.623Z,-9.1
2018-02-27T17:45:36.446Z,-9.1
2018-02-27T17:46:58.827Z,-9.1
2018-02-27T17:48:26.240Z,-9.2
2018-02-27T17:49:58.738Z,-9.2
2018-02-27T17:51:18.553Z,-9.2
2018-02-27T17:52:38.434Z,-9.1
2018-02-27T17:53:58.307Z,-9.2
2018-02-27T17:55:20.703Z,-9.2
2018-02-27T17:56:43.061Z,-9.2
2018-02-27T17:58:05.810Z,-9.1
2018-02-27T17:59:25.782Z,-9.2
2018-02-27T18:00:45.779Z,-9.2
2018-02-27T18:02:13.322Z,-9.3
2018-02-27T18:03:33.251Z,-9.3
2018-02-27T18:04:53.196Z,-9.3
2018-02-27T18:06:15.797Z,-9.3